createdAt,value
2023-03-22T00:02:26.250Z,33.17
2023-03-22T00:04:53.251Z,32.05
2023-03-22T00:07:20.114Z,31.13
2023-03-22T00:09:46.417Z,33.65
2023-03-22T00:12:12.982Z,35.15
2023-03-22T00:14:39.570Z,36.53
2023-03-22T00:17:05.932Z,39.92
2023-03-22T00:19:34.174Z,47.15
2023-03-22T00:22:01.708Z,42.55
2023-03-22T00:24:28.384Z,41.45
2023-03-22T00:26:55.014Z,38.00
2023-03-22T00:29:22.976Z,34.55
2023-03-22T00:31:50.196Z,33.08
2023-03-22T00:34:16.999Z,30.95
2023-03-22T00:36:45.752Z,30.45
2023-03-22T00:39:12.809Z,29.83
2023-03-22T00:41:39.858Z,29.45
2023-03-22T00:44:07.210Z,29.10
2023-03-22T00:46:33.773Z,39.05
2023-03-22T00:49:00.511Z,46.20
2023-03-22T00:51:26.893Z,40.17
2023-03-22T00:53:54.304Z,38.80
2023-03-22T00:56:23.223Z,35.38
2023-03-22T00:59:10.439Z,33.00
2023-03-22T01:01:37.155Z,33.08
2023-03-22T01:04:05.222Z,33.55
2023-03-22T01:06:32.502Z,34.00
2023-03-22T01:08:58.917Z,33.13
2023-03-22T01:11:26.007Z,31.42
2023-03-22T01:13:53.446Z,31.58
2023-03-22T01:16:19.916Z,31.77
2023-03-22T01:18:47.024Z,33.03
2023-03-22T01:21:14.118Z,31.92
2023-03-22T01:23:41.166Z,32.47
2023-03-22T01:26:08.462Z,34.72
2023-03-22T01:28:36.079Z,33.67
2023-03-22T01:31:05.354Z,32.78
2023-03-22T01:33:32.049Z,34.50
2023-03-22T01:36:00.154Z,35.55
2023-03-22T01:38:27.491Z,37.28
2023-03-22T01:40:58.959Z,37.65
2023-03-22T01:43:27.710Z,35.92
2023-03-22T01:45:56.240Z,39.05
2023-03-22T01:48:29.612Z,35.75
2023-03-22T01:51:04.693Z,36.17
2023-03-22T01:53:41.010Z,36.92
2023-03-22T01:56:07.896Z,40.72
2023-03-22T01:58:36.628Z,36.53
2023-03-22T02:01:07.388Z,42.30
2023-03-22T02:03:54.805Z,36.83
2023-03-22T02:06:23.400Z,36.38
2023-03-22T02:08:58.718Z,33.42
2023-03-22T02:11:53.625Z,33.90
2023-03-22T02:14:55.518Z,33.42
2023-03-22T02:17:51.926Z,37.25
2023-03-22T02:20:34.201Z,37.85
2023-03-22T02:23:14.217Z,41.10
2023-03-22T02:25:46.677Z,42.28
2023-03-22T02:28:20.217Z,43.22
2023-03-22T02:31:02.171Z,42.42
2023-03-22T02:33:48.947Z,42.70
2023-03-22T02:36:30.933Z,42.38
2023-03-22T02:39:10.123Z,39.83
2023-03-22T02:41:47.779Z,42.55
2023-03-22T02:44:32.562Z,41.00
2023-03-22T02:47:02.285Z,40.70
2023-03-22T02:49:35.509Z,42.30
2023-03-22T02:52:01.853Z,42.05
2023-03-22T02:54:44.821Z,43.53
2023-03-22T02:57:17.262Z,43.35
2023-03-22T02:59:43.866Z,41.83
2023-03-22T03:02:13.390Z,40.88
2023-03-22T03:04:44.640Z,36.65
2023-03-22T03:07:13.062Z,33.72
2023-03-22T03:09:41.426Z,30.33
2023-03-22T03:12:27.254Z,30.00
2023-03-22T03:14:56.156Z,33.05
2023-03-22T03:17:26.089Z,30.42
2023-03-22T03:20:08.277Z,32.92
2023-03-22T03:22:34.678Z,33.15
2023-03-22T03:25:12.593Z,33.92
2023-03-22T03:27:49.866Z,35.65
2023-03-22T03:30:20.877Z,35.42
2023-03-22T03:32:59.385Z,36.63
2023-03-22T03:35:30.107Z,38.55
2023-03-22T03:38:09.053Z,37.28
2023-03-22T03:40:50.290Z,36.15
2023-03-22T03:43:18.692Z,34.65
2023-03-22T03:45:45.853Z,35.20
2023-03-22T03:48:18.579Z,36.33
2023-03-22T03:50:46.411Z,33.78
2023-03-22T03:53:12.964Z,35.15
2023-03-22T03:55:39.444Z,35.20
2023-03-22T03:58:06.199Z,34.15
2023-03-22T04:00:32.861Z,32.80
2023-03-22T04:03:26.013Z,31.60
2023-03-22T04:06:01.846Z,30.63
2023-03-22T04:08:31.021Z,31.48
2023-03-22T04:10:57.694Z,33.00
2023-03-22T04:13:25.147Z,32.60
2023-03-22T04:15:58.347Z,33.50
2023-03-22T04:18:25.198Z,33.53
2023-03-22T04:20:53.593Z,32.28
2023-03-22T04:23:23.183Z,32.50
2023-03-22T04:25:50.754Z,36.25
2023-03-22T04:28:26.763Z,37.03
2023-03-22T04:30:53.471Z,35.50
2023-03-22T04:33:56.670Z,35.45
2023-03-22T04:36:45.316Z,34.03
2023-03-22T04:39:17.953Z,35.58
2023-03-22T04:41:54.168Z,35.47
2023-03-22T04:44:23.198Z,35.50
2023-03-22T04:46:51.156Z,34.63
2023-03-22T04:49:18.623Z,37.10
2023-03-22T04:51:45.324Z,34.85
2023-03-22T04:54:27.962Z,38.65
2023-03-22T04:56:54.766Z,36.35
2023-03-22T04:59:41.217Z,37.42
2023-03-22T05:02:07.983Z,35.90
2023-03-22T05:04:41.948Z,39.17
2023-03-22T05:07:20.706Z,37.35
2023-03-22T05:09:52.598Z,38.45
2023-03-22T05:12:19.405Z,38.65
2023-03-22T05:14:50.895Z,37.40
2023-03-22T05:17:22.719Z,37.47
2023-03-22T05:19:52.506Z,40.97
2023-03-22T05:22:22.579Z,39.20
2023-03-22T05:24:53.077Z,39.03
2023-03-22T05:27:31.703Z,36.58
2023-03-22T05:30:17.361Z,38.05
2023-03-22T05:32:50.330Z,38.40
2023-03-22T05:35:17.670Z,37.42
2023-03-22T05:37:49.846Z,35.75
2023-03-22T05:40:17.032Z,34.33
2023-03-22T05:42:45.406Z,32.45
2023-03-22T05:45:20.239Z,30.70
2023-03-22T05:47:54.072Z,28.83
2023-03-22T05:50:22.420Z,28.27
2023-03-22T05:52:49.267Z,28.73
2023-03-22T05:55:26.442Z,26.05
2023-03-22T05:57:57.261Z,26.30
2023-03-22T06:00:25.723Z,26.77
2023-03-22T06:03:22.005Z,25.35
2023-03-22T06:05:58.025Z,25.83
2023-03-22T06:08:50.801Z,26.38
2023-03-22T06:11:18.542Z,26.15
2023-03-22T06:13:45.487Z,28.88
2023-03-22T06:16:12.312Z,29.40
2023-03-22T06:18:38.696Z,30.17
2023-03-22T06:24:59.194Z,29.05
2023-03-22T06:27:35.458Z,28.35
2023-03-22T06:30:02.304Z,29.73
2023-03-22T06:32:36.221Z,29.40
2023-03-22T06:35:03.087Z,29.35
2023-03-22T06:37:29.706Z,27.20
2023-03-22T06:39:57.827Z,29.52
2023-03-22T06:42:26.327Z,30.65
2023-03-22T06:45:03.147Z,29.05
2023-03-22T06:47:33.048Z,25.98
2023-03-22T06:50:38.426Z,27.50
2023-03-22T06:53:12.247Z,20.65
2023-03-22T06:55:40.919Z,21.83
2023-03-22T06:58:14.182Z,22.45
2023-03-22T07:00:41.867Z,20.88
2023-03-22T07:03:08.528Z,19.17
2023-03-22T07:05:41.701Z,21.70
2023-03-22T07:08:08.378Z,21.95
2023-03-22T07:10:41.386Z,21.88
2023-03-22T07:13:08.847Z,20.48
2023-03-22T07:15:36.599Z,19.50
2023-03-22T07:18:08.553Z,19.00
2023-03-22T07:20:38.385Z,18.60
2023-03-22T07:23:04.913Z,16.45
2023-03-22T07:25:36.924Z,15.15
2023-03-22T07:28:18.836Z,14.82
2023-03-22T07:30:45.556Z,14.18
2023-03-22T07:33:12.821Z,13.50
2023-03-22T07:35:41.298Z,14.00
2023-03-22T07:38:08.047Z,13.10
2023-03-22T07:40:34.507Z,13.68
2023-03-22T07:43:01.616Z,10.93
2023-03-22T07:45:37.421Z,8.23
2023-03-22T07:48:23.594Z,7.55
2023-03-22T07:51:11.237Z,12.10
2023-03-22T07:53:38.802Z,7.72
2023-03-22T07:56:06.268Z,11.07
2023-03-22T07:58:33.160Z,8.23
2023-03-22T08:01:03.830Z,7.65
2023-03-22T08:03:59.909Z,7.50
2023-03-22T08:06:42.688Z,7.97
2023-03-22T08:09:10.435Z,7.88
2023-03-22T08:11:37.187Z,8.15
2023-03-22T08:14:03.943Z,7.65
2023-03-22T08:16:33.181Z,9.05
2023-03-22T08:19:03.136Z,7.68
2023-03-22T08:21:33.882Z,7.38
2023-03-22T08:24:01.588Z,7.40
2023-03-22T08:26:45.596Z,7.95
2023-03-22T08:29:18.657Z,9.07
2023-03-22T08:31:47.599Z,7.80
2023-03-22T08:34:14.414Z,8.32
2023-03-22T08:36:41.191Z,7.72
2023-03-22T08:39:08.631Z,7.32
2023-03-22T08:41:43.770Z,7.50
2023-03-22T08:44:10.602Z,7.75
2023-03-22T08:46:38.848Z,7.75
2023-03-22T08:49:10.430Z,6.97
2023-03-22T08:51:49.640Z,7.53
2023-03-22T08:54:21.032Z,8.70
2023-03-22T08:56:53.628Z,9.70
2023-03-22T08:59:46.715Z,9.23
2023-03-22T09:02:27.765Z,7.75
2023-03-22T09:04:55.877Z,7.45
2023-03-22T09:07:24.704Z,6.90
2023-03-22T09:10:17.447Z,7.13
2023-03-22T09:12:46.784Z,7.05
2023-03-22T09:15:13.482Z,6.88
2023-03-22T09:17:44.374Z,6.68
2023-03-22T09:20:13.381Z,6.72
2023-03-22T09:22:43.056Z,6.38
2023-03-22T09:25:12.960Z,6.35
2023-03-22T09:27:42.276Z,6.45
2023-03-22T09:30:09.453Z,6.10
2023-03-22T09:32:37.236Z,5.70
2023-03-22T09:35:05.214Z,5.72
2023-03-22T09:37:39.952Z,5.55
2023-03-22T09:40:07.848Z,6.15
2023-03-22T09:42:42.771Z,6.45
2023-03-22T09:45:15.493Z,5.70
2023-03-22T09:48:02.024Z,5.78
2023-03-22T09:50:31.631Z,5.57
2023-03-22T09:52:59.149Z,5.65
2023-03-22T09:55:33.585Z,5.60
2023-03-22T09:58:18.880Z,5.97
2023-03-22T10:00:45.549Z,4.75
2023-03-22T10:03:30.649Z,4.63
2023-03-22T10:06:06.172Z,4.53
2023-03-22T10:08:57.648Z,4.05
2023-03-22T10:11:37.811Z,3.97
2023-03-22T10:14:21.173Z,3.42
2023-03-22T10:16:47.918Z,3.05
2023-03-22T10:19:23.456Z,2.90
2023-03-22T10:21:51.643Z,3.13
2023-03-22T10:24:26.882Z,3.42
2023-03-22T10:26:53.688Z,3.33
2023-03-22T10:29:26.074Z,3.70
2023-03-22T10:31:54.310Z,3.30
2023-03-22T10:34:22.626Z,3.53
2023-03-22T10:36:52.166Z,2.33
2023-03-22T10:39:38.361Z,2.38
2023-03-22T10:42:18.030Z,2.13
2023-03-22T10:44:49.472Z,2.17
2023-03-22T10:47:18.227Z,2.30
2023-03-22T10:49:53.670Z,2.20
2023-03-22T10:52:26.366Z,2.40
2023-03-22T10:54:54.207Z,2.97
2023-03-22T10:57:20.927Z,2.85
2023-03-22T10:59:47.579Z,2.80
2023-03-22T11:02:26.965Z,2.80
2023-03-22T11:04:58.228Z,3.10
2023-03-22T11:07:30.232Z,2.60
2023-03-22T11:10:21.770Z,3.15
2023-03-22T11:12:50.570Z,2.85
2023-03-22T11:15:22.117Z,2.40
2023-03-22T11:17:48.772Z,3.00
2023-03-22T11:20:19.448Z,2.50
2023-03-22T11:22:47.236Z,2.17
2023-03-22T11:25:15.854Z,3.63
2023-03-22T11:27:53.763Z,2.13
2023-03-22T11:30:25.489Z,3.30
2023-03-22T11:33:11.174Z,2.20
2023-03-22T11:35:38.769Z,2.33
2023-03-22T11:38:07.799Z,1.70
2023-03-22T11:40:36.370Z,1.88
2023-03-22T11:43:17.182Z,1.75
2023-03-22T11:45:44.394Z,1.80
2023-03-22T11:48:24.598Z,1.38
2023-03-22T11:50:53.611Z,1.48
2023-03-22T11:53:23.317Z,1.50
2023-03-22T11:55:51.351Z,1.45
2023-03-22T11:58:41.303Z,1.80
2023-03-22T12:01:11.112Z,3.00
2023-03-22T12:03:39.828Z,2.88
2023-03-22T12:06:26.640Z,1.40
2023-03-22T12:09:01.740Z,1.48
2023-03-22T12:11:37.415Z,1.67
2023-03-22T12:14:12.574Z,2.30
2023-03-22T12:16:44.556Z,1.50
2023-03-22T12:19:14.244Z,1.55
2023-03-22T12:21:41.594Z,1.50
2023-03-22T12:24:16.753Z,1.58
2023-03-22T12:26:43.462Z,1.40
2023-03-22T12:29:18.518Z,1.20
2023-03-22T12:31:53.461Z,1.45
2023-03-22T12:34:22.390Z,1.20
2023-03-22T12:36:51.182Z,1.23
2023-03-22T12:39:31.538Z,1.42
2023-03-22T12:42:01.409Z,1.60
2023-03-22T12:44:32.278Z,1.38
2023-03-22T12:47:06.803Z,1.45
2023-03-22T12:49:48.403Z,1.38
2023-03-22T12:52:21.008Z,1.10
2023-03-22T12:54:48.778Z,1.25
2023-03-22T12:57:16.723Z,1.23
2023-03-22T12:59:45.896Z,1.00
2023-03-22T13:02:15.658Z,1.20
2023-03-22T13:04:52.829Z,1.17
2023-03-22T13:07:31.914Z,3.03
2023-03-22T13:10:01.585Z,1.15
2023-03-22T13:12:30.290Z,1.20
2023-03-22T13:14:58.595Z,1.38
2023-03-22T13:17:25.643Z,1.13
2023-03-22T13:19:52.198Z,1.10
2023-03-22T13:22:21.222Z,1.20
2023-03-22T13:25:06.084Z,1.20
2023-03-22T13:27:38.364Z,1.33
2023-03-22T13:30:10.670Z,1.40
2023-03-22T13:32:45.017Z,1.50
2023-03-22T13:35:30.321Z,1.60
2023-03-22T13:38:02.962Z,1.38
2023-03-22T13:40:37.401Z,1.17
2023-03-22T13:43:11.183Z,1.40
2023-03-22T13:45:58.022Z,1.10
2023-03-22T13:48:29.820Z,1.20
2023-03-22T13:50:59.007Z,1.25
2023-03-22T13:53:30.510Z,3.45
2023-03-22T13:55:56.910Z,1.25
2023-03-22T13:58:42.485Z,1.20
2023-03-22T14:01:29.631Z,1.10
2023-03-22T14:03:59.098Z,1.20
2023-03-22T14:06:28.919Z,1.35
2023-03-22T14:09:06.139Z,1.40
2023-03-22T14:11:46.816Z,1.23
2023-03-22T14:14:16.990Z,1.10
2023-03-22T14:16:50.919Z,1.10
2023-03-22T14:19:19.284Z,1.10
